sensor_id;sensor_type;location;lat;lon;timestamp;temperature;humidity
1716;DHT22;855;48.824;9.220;2023-04-07T00:00:13;9.00;90.20
1716;DHT22;855;48.824;9.220;2023-04-07T00:02:41;9.00;90.50
1716;DHT22;855;48.824;9.220;2023-04-07T00:05:08;9.10;90.80
1716;DHT22;855;48.824;9.220;2023-04-07T00:07:35;9.10;90.20
1716;DHT22;855;48.824;9.220;2023-04-07T00:10:01;9.00;90.20
1716;DHT22;855;48.824;9.220;2023-04-07T00:12:30;9.00;90.70
1716;DHT22;855;48.824;9.220;2023-04-07T00:14:56;9.00;90.50
1716;DHT22;855;48.824;9.220;2023-04-07T00:17:23;9.10;90.50
1716;DHT22;855;48.824;9.220;2023-04-07T00:19:50;9.10;90.30
1716;DHT22;855;48.824;9.220;2023-04-07T00:22:17;9.10;90.20
1716;DHT22;855;48.824;9.220;2023-04-07T00:24:44;9.20;89.80
1716;DHT22;855;48.824;9.220;2023-04-07T00:27:11;9.20;89.80
1716;DHT22;855;48.824;9.220;2023-04-07T00:29:39;9.10;89.80
1716;DHT22;855;48.824;9.220;2023-04-07T00:32:08;9.20;89.50
1716;DHT22;855;48.824;9.220;2023-04-07T00:34:35;9.10;89.00
1716;DHT22;855;48.824;9.220;2023-04-07T00:37:02;9.10;89.30
1716;DHT22;855;48.824;9.220;2023-04-07T00:39:31;9.10;89.00
1716;DHT22;855;48.824;9.220;2023-04-07T00:41:58;9.00;88.90
1716;DHT22;855;48.824;9.220;2023-04-07T00:44:25;9.00;89.30
1716;DHT22;855;48.824;9.220;2023-04-07T00:46:54;9.00;89.40
1716;DHT22;855;48.824;9.220;2023-04-07T00:49:20;9.00;89.50
1716;DHT22;855;48.824;9.220;2023-04-07T00:51:47;9.10;89.50
1716;DHT22;855;48.824;9.220;2023-04-07T00:54:14;9.10;90.10
1716;DHT22;855;48.824;9.220;2023-04-07T00:56:41;9.10;89.80
1716;DHT22;855;48.824;9.220;2023-04-07T00:59:08;9.20;89.80
1716;DHT22;855;48.824;9.220;2023-04-07T01:01:39;9.10;89.80
1716;DHT22;855;48.824;9.220;2023-04-07T01:04:08;9.10;89.30
1716;DHT22;855;48.824;9.220;2023-04-07T01:06:50;9.10;89.00
1716;DHT22;855;48.824;9.220;2023-04-07T01:09:22;9.00;89.30
1716;DHT22;855;48.824;9.220;2023-04-07T01:11:55;8.90;90.10
1716;DHT22;855;48.824;9.220;2023-04-07T01:14:27;8.80;90.40
1716;DHT22;855;48.824;9.220;2023-04-07T01:16:57;8.80;90.80
1716;DHT22;855;48.824;9.220;2023-04-07T01:19:33;8.80;90.90
1716;DHT22;855;48.824;9.220;2023-04-07T01:22:02;8.90;91.00
1716;DHT22;855;48.824;9.220;2023-04-07T01:24:49;8.90;90.70
1716;DHT22;855;48.824;9.220;2023-04-07T01:27:24;8.80;90.80
1716;DHT22;855;48.824;9.220;2023-04-07T01:30:00;8.80;90.70
1716;DHT22;855;48.824;9.220;2023-04-07T01:32:29;8.70;90.90
1716;DHT22;855;48.824;9.220;2023-04-07T01:34:57;8.70;90.90
1716;DHT22;855;48.824;9.220;2023-04-07T01:37:26;8.80;90.80
1716;DHT22;855;48.824;9.220;2023-04-07T01:39:53;8.80;90.80
1716;DHT22;855;48.824;9.220;2023-04-07T01:42:20;8.80;90.90
1716;DHT22;855;48.824;9.220;2023-04-07T01:44:47;8.80;90.80
1716;DHT22;855;48.824;9.220;2023-04-07T01:47:17;8.90;90.60
1716;DHT22;855;48.824;9.220;2023-04-07T01:49:45;8.80;90.50
1716;DHT22;855;48.824;9.220;2023-04-07T01:52:13;8.90;90.60
1716;DHT22;855;48.824;9.220;2023-04-07T01:54:40;8.90;90.70
1716;DHT22;855;48.824;9.220;2023-04-07T01:57:07;8.90;90.90
1716;DHT22;855;48.824;9.220;2023-04-07T01:59:33;8.90;91.20
1716;DHT22;855;48.824;9.220;2023-04-07T02:02:00;8.80;91.40
1716;DHT22;855;48.824;9.220;2023-04-07T02:04:31;8.80;91.50
1716;DHT22;855;48.824;9.220;2023-04-07T02:07:04;8.80;91.50
1716;DHT22;855;48.824;9.220;2023-04-07T02:09:37;8.90;91.70
1716;DHT22;855;48.824;9.220;2023-04-07T02:12:07;8.90;91.40
1716;DHT22;855;48.824;9.220;2023-04-07T02:14:35;9.00;91.40
1716;DHT22;855;48.824;9.220;2023-04-07T02:17:03;8.90;91.50
1716;DHT22;855;48.824;9.220;2023-04-07T02:19:31;8.90;91.10
1716;DHT22;855;48.824;9.220;2023-04-07T02:22:01;9.00;91.00
1716;DHT22;855;48.824;9.220;2023-04-07T02:24:28;8.90;91.00
1716;DHT22;855;48.824;9.220;2023-04-07T02:26:55;9.00;91.10
1716;DHT22;855;48.824;9.220;2023-04-07T02:29:21;8.90;90.70
1716;DHT22;855;48.824;9.220;2023-04-07T02:31:48;8.90;90.90
1716;DHT22;855;48.824;9.220;2023-04-07T02:34:15;8.90;91.20
1716;DHT22;855;48.824;9.220;2023-04-07T02:36:43;8.90;91.40
1716;DHT22;855;48.824;9.220;2023-04-07T02:39:10;8.90;91.40
1716;DHT22;855;48.824;9.220;2023-04-07T02:41:37;8.90;91.50
1716;DHT22;855;48.824;9.220;2023-04-07T02:44:04;8.90;91.40
1716;DHT22;855;48.824;9.220;2023-04-07T02:46:30;8.90;91.30
1716;DHT22;855;48.824;9.220;2023-04-07T02:48:57;9.00;91.50
1716;DHT22;855;48.824;9.220;2023-04-07T02:51:24;9.10;91.30
1716;DHT22;855;48.824;9.220;2023-04-07T02:53:52;9.10;90.70
1716;DHT22;855;48.824;9.220;2023-04-07T02:56:19;9.10;90.80
1716;DHT22;855;48.824;9.220;2023-04-07T02:58:46;9.20;90.90
1716;DHT22;855;48.824;9.220;2023-04-07T03:01:13;9.20;90.60
1716;DHT22;855;48.824;9.220;2023-04-07T03:03:40;9.20;90.60
1716;DHT22;855;48.824;9.220;2023-04-07T03:06:09;9.10;90.10
1716;DHT22;855;48.824;9.220;2023-04-07T03:08:36;9.10;90.20
1716;DHT22;855;48.824;9.220;2023-04-07T03:11:04;9.00;90.20
1716;DHT22;855;48.824;9.220;2023-04-07T03:13:31;9.10;90.50
1716;DHT22;855;48.824;9.220;2023-04-07T03:15:57;9.10;90.30
1716;DHT22;855;48.824;9.220;2023-04-07T03:18:24;9.00;89.80
1716;DHT22;855;48.824;9.220;2023-04-07T03:20:51;9.00;89.80
1716;DHT22;855;48.824;9.220;2023-04-07T03:23:19;9.00;89.50
1716;DHT22;855;48.824;9.220;2023-04-07T03:25:48;9.00;90.10
1716;DHT22;855;48.824;9.220;2023-04-07T03:28:16;9.00;89.80
1716;DHT22;855;48.824;9.220;2023-04-07T03:30:43;9.00;89.80
1716;DHT22;855;48.824;9.220;2023-04-07T03:33:10;9.10;89.50
1716;DHT22;855;48.824;9.220;2023-04-07T03:35:36;9.10;89.30
1716;DHT22;855;48.824;9.220;2023-04-07T03:38:03;9.10;89.40
1716;DHT22;855;48.824;9.220;2023-04-07T03:40:30;9.10;89.40
1716;DHT22;855;48.824;9.220;2023-04-07T03:42:58;9.10;89.40
1716;DHT22;855;48.824;9.220;2023-04-07T03:45:26;9.10;89.00
1716;DHT22;855;48.824;9.220;2023-04-07T03:47:53;9.10;89.10
1716;DHT22;855;48.824;9.220;2023-04-07T03:50:20;9.10;89.40
1716;DHT22;855;48.824;9.220;2023-04-07T03:52:46;9.20;89.40
1716;DHT22;855;48.824;9.220;2023-04-07T03:55:13;9.30;89.30
1716;DHT22;855;48.824;9.220;2023-04-07T03:57:40;9.40;88.90
1716;DHT22;855;48.824;9.220;2023-04-07T04:00:08;9.30;88.30
1716;DHT22;855;48.824;9.220;2023-04-07T04:02:36;9.20;88.60
1716;DHT22;855;48.824;9.220;2023-04-07T04:05:03;9.20;88.90
1716;DHT22;855;48.824;9.220;2023-04-07T04:07:30;9.20;89.40
1716;DHT22;855;48.824;9.220;2023-04-07T04:09:58;9.10;89.50
1716;DHT22;855;48.824;9.220;2023-04-07T04:12:25;9.30;89.50
1716;DHT22;855;48.824;9.220;2023-04-07T04:14:52;9.30;89.00
1716;DHT22;855;48.824;9.220;2023-04-07T04:17:18;9.20;89.00
1716;DHT22;855;48.824;9.220;2023-04-07T04:19:46;9.30;88.70
1716;DHT22;855;48.824;9.220;2023-04-07T04:22:13;9.30;88.70
1716;DHT22;855;48.824;9.220;2023-04-07T04:24:40;9.30;88.20
1716;DHT22;855;48.824;9.220;2023-04-07T04:27:07;9.40;87.90
1716;DHT22;855;48.824;9.220;2023-04-07T04:29:34;9.40;87.90
1716;DHT22;855;48.824;9.220;2023-04-07T04:32:01;9.30;87.50
1716;DHT22;855;48.824;9.220;2023-04-07T04:34:28;9.40;87.70
1716;DHT22;855;48.824;9.220;2023-04-07T04:36:56;9.40;87.90
1716;DHT22;855;48.824;9.220;2023-04-07T04:39:23;9.40;87.80
1716;DHT22;855;48.824;9.220;2023-04-07T04:41:49;9.50;87.90
1716;DHT22;855;48.824;9.220;2023-04-07T04:44:16;9.40;87.70
1716;DHT22;855;48.824;9.220;2023-04-07T04:46:43;9.50;87.50
1716;DHT22;855;48.824;9.220;2023-04-07T04:49:10;9.50;87.30
1716;DHT22;855;48.824;9.220;2023-04-07T04:51:37;9.50;87.30
1716;DHT22;855;48.824;9.220;2023-04-07T04:54:05;9.50;86.70
1716;DHT22;855;48.824;9.220;2023-04-07T04:56:32;9.40;86.90
1716;DHT22;855;48.824;9.220;2023-04-07T04:58:58;9.30;87.00
1716;DHT22;855;48.824;9.220;2023-04-07T05:01:25;9.30;86.90
1716;DHT22;855;48.824;9.220;2023-04-07T05:03:52;9.30;87.40
1716;DHT22;855;48.824;9.220;2023-04-07T05:06:19;9.40;87.40
1716;DHT22;855;48.824;9.220;2023-04-07T05:08:46;9.40;87.10
1716;DHT22;855;48.824;9.220;2023-04-07T05:11:15;9.50;86.60
1716;DHT22;855;48.824;9.220;2023-04-07T05:13:42;9.60;86.40
1716;DHT22;855;48.824;9.220;2023-04-07T05:16:09;9.70;86.20
1716;DHT22;855;48.824;9.220;2023-04-07T05:18:35;9.70;86.50
1716;DHT22;855;48.824;9.220;2023-04-07T05:21:02;9.80;86.10
1716;DHT22;855;48.824;9.220;2023-04-07T05:23:29;9.60;85.40
1716;DHT22;855;48.824;9.220;2023-04-07T05:25:56;9.50;86.00
1716;DHT22;855;48.824;9.220;2023-04-07T05:28:24;9.50;86.10
1716;DHT22;855;48.824;9.220;2023-04-07T05:30:51;9.40;86.10
1716;DHT22;855;48.824;9.220;2023-04-07T05:33:18;9.50;86.20
1716;DHT22;855;48.824;9.220;2023-04-07T05:35:45;9.60;86.40
1716;DHT22;855;48.824;9.220;2023-04-07T05:38:13;9.70;86.20
1716;DHT22;855;48.824;9.220;2023-04-07T05:40:41;9.90;86.20
1716;DHT22;855;48.824;9.220;2023-04-07T05:43:08;10.00;86.00
1716;DHT22;855;48.824;9.220;2023-04-07T05:45:36;10.00;86.60
1716;DHT22;855;48.824;9.220;2023-04-07T05:48:03;10.10;86.70
1716;DHT22;855;48.824;9.220;2023-04-07T05:50:30;10.10;85.60
1716;DHT22;855;48.824;9.220;2023-04-07T05:52:57;9.90;85.00
1716;DHT22;855;48.824;9.220;2023-04-07T05:55:23;9.90;86.10
1716;DHT22;855;48.824;9.220;2023-04-07T05:57:50;9.70;86.10
1716;DHT22;855;48.824;9.220;2023-04-07T06:00:18;9.60;86.40
1716;DHT22;855;48.824;9.220;2023-04-07T06:02:46;9.70;86.70
1716;DHT22;855;48.824;9.220;2023-04-07T06:05:13;9.80;86.90
1716;DHT22;855;48.824;9.220;2023-04-07T06:07:40;9.90;86.90
1716;DHT22;855;48.824;9.220;2023-04-07T06:10:07;9.90;87.00
1716;DHT22;855;48.824;9.220;2023-04-07T06:12:34;9.90;86.90
1716;DHT22;855;48.824;9.220;2023-04-07T06:15:01;10.00;86.50
1716;DHT22;855;48.824;9.220;2023-04-07T06:17:28;10.00;86.40
1716;DHT22;855;48.824;9.220;2023-04-07T06:19:56;9.70;86.60
1716;DHT22;855;48.824;9.220;2023-04-07T06:22:23;9.60;87.30
1716;DHT22;855;48.824;9.220;2023-04-07T06:24:50;9.60;87.40
1716;DHT22;855;48.824;9.220;2023-04-07T06:27:17;9.80;87.50
1716;DHT22;855;48.824;9.220;2023-04-07T06:29:44;9.80;87.30
1716;DHT22;855;48.824;9.220;2023-04-07T06:32:11;9.90;87.00
1716;DHT22;855;48.824;9.220;2023-04-07T06:34:38;10.00;86.50
1716;DHT22;855;48.824;9.220;2023-04-07T06:37:06;10.00;86.00
1716;DHT22;855;48.824;9.220;2023-04-07T06:39:33;10.00;86.20
1716;DHT22;855;48.824;9.220;2023-04-07T06:41:59;10.00;86.10
1716;DHT22;855;48.824;9.220;2023-04-07T06:44:26;10.00;86.20
1716;DHT22;855;48.824;9.220;2023-04-07T06:46:53;10.20;86.20
1716;DHT22;855;48.824;9.220;2023-04-07T06:49:20;10.20;85.40
1716;DHT22;855;48.824;9.220;2023-04-07T06:51:47;10.20;85.40
1716;DHT22;855;48.824;9.220;2023-04-07T06:54:16;10.30;85.30
1716;DHT22;855;48.824;9.220;2023-04-07T06:56:42;10.40;85.40
1716;DHT22;855;48.824;9.220;2023-04-07T06:59:09;10.20;84.90
1716;DHT22;855;48.824;9.220;2023-04-07T07:01:36;10.10;85.30
1716;DHT22;855;48.824;9.220;2023-04-07T07:04:03;10.00;86.10
1716;DHT22;855;48.824;9.220;2023-04-07T07:06:31;10.00;86.50
1716;DHT22;855;48.824;9.220;2023-04-07T07:08:58;9.90;86.20
1716;DHT22;855;48.824;9.220;2023-04-07T07:11:28;10.00;86.10
1716;DHT22;855;48.824;9.220;2023-04-07T07:13:55;10.10;85.80
1716;DHT22;855;48.824;9.220;2023-04-07T07:16:22;10.20;85.20
1716;DHT22;855;48.824;9.220;2023-04-07T07:18:49;10.30;84.50
1716;DHT22;855;48.824;9.220;2023-04-07T07:21:17;10.30;83.30
1716;DHT22;855;48.824;9.220;2023-04-07T07:23:44;10.30;82.70
1716;DHT22;855;48.824;9.220;2023-04-07T07:26:11;10.40;82.90
1716;DHT22;855;48.824;9.220;2023-04-07T07:28:39;10.50;82.80
1716;DHT22;855;48.824;9.220;2023-04-07T07:31:09;10.50;81.90
1716;DHT22;855;48.824;9.220;2023-04-07T07:33:38;10.50;81.70
1716;DHT22;855;48.824;9.220;2023-04-07T07:36:05;10.60;82.00
1716;DHT22;855;48.824;9.220;2023-04-07T07:38:32;10.70;81.70
1716;DHT22;855;48.824;9.220;2023-04-07T07:40:59;10.70;81.50
1716;DHT22;855;48.824;9.220;2023-04-07T07:43:26;10.90;82.00
1716;DHT22;855;48.824;9.220;2023-04-07T07:45:54;11.00;80.80
1716;DHT22;855;48.824;9.220;2023-04-07T07:48:21;11.10;80.40
1716;DHT22;855;48.824;9.220;2023-04-07T07:50:48;11.30;79.50
1716;DHT22;855;48.824;9.220;2023-04-07T07:53:15;11.30;78.70
1716;DHT22;855;48.824;9.220;2023-04-07T07:55:42;11.50;77.40
1716;DHT22;855;48.824;9.220;2023-04-07T07:58:08;11.50;76.40
1716;DHT22;855;48.824;9.220;2023-04-07T08:00:35;11.50;76.70
1716;DHT22;855;48.824;9.220;2023-04-07T08:03:04;11.60;76.00
1716;DHT22;855;48.824;9.220;2023-04-07T08:05:30;11.90;75.60
1716;DHT22;855;48.824;9.220;2023-04-07T08:07:57;11.90;73.80
1716;DHT22;855;48.824;9.220;2023-04-07T08:10:24;12.20;74.10
1716;DHT22;855;48.824;9.220;2023-04-07T08:12:51;12.20;72.70
1716;DHT22;855;48.824;9.220;2023-04-07T08:15:18;12.30;72.20
1716;DHT22;855;48.824;9.220;2023-04-07T08:17:45;12.30;73.40
1716;DHT22;855;48.824;9.220;2023-04-07T08:20:13;12.40;73.10
1716;DHT22;855;48.824;9.220;2023-04-07T08:22:40;12.60;71.20
1716;DHT22;855;48.824;9.220;2023-04-07T08:25:08;12.70;72.70
1716;DHT22;855;48.824;9.220;2023-04-07T08:27:35;12.90;73.40
1716;DHT22;855;48.824;9.220;2023-04-07T08:30:04;13.00;72.60
1716;DHT22;855;48.824;9.220;2023-04-07T08:32:36;13.20;71.20
1716;DHT22;855;48.824;9.220;2023-04-07T08:35:03;13.30;70.90
1716;DHT22;855;48.824;9.220;2023-04-07T08:37:32;13.40;70.50
1716;DHT22;855;48.824;9.220;2023-04-07T08:39:59;13.50;69.30
1716;DHT22;855;48.824;9.220;2023-04-07T08:42:28;13.70;69.40
1716;DHT22;855;48.824;9.220;2023-04-07T08:44:56;14.00;68.60
1716;DHT22;855;48.824;9.220;2023-04-07T08:47:25;13.80;66.50
1716;DHT22;855;48.824;9.220;2023-04-07T08:49:53;13.90;67.60
1716;DHT22;855;48.824;9.220;2023-04-07T08:52:22;13.90;67.50
1716;DHT22;855;48.824;9.220;2023-04-07T08:54:54;13.80;66.80
1716;DHT22;855;48.824;9.220;2023-04-07T08:57:23;13.80;67.20
1716;DHT22;855;48.824;9.220;2023-04-07T08:59:50;13.20;66.90
1716;DHT22;855;48.824;9.220;2023-04-07T09:02:18;12.80;69.80
1716;DHT22;855;48.824;9.220;2023-04-07T09:04:45;13.00;69.60
1716;DHT22;855;48.824;9.220;2023-04-07T09:07:12;13.20;69.30
1716;DHT22;855;48.824;9.220;2023-04-07T09:09:39;13.10;68.40
1716;DHT22;855;48.824;9.220;2023-04-07T09:12:08;13.10;68.60
1716;DHT22;855;48.824;9.220;2023-04-07T09:14:35;13.20;69.20
1716;DHT22;855;48.824;9.220;2023-04-07T09:17:02;13.40;69.30
1716;DHT22;855;48.824;9.220;2023-04-07T09:19:29;13.00;68.90
1716;DHT22;855;48.824;9.220;2023-04-07T09:21:56;13.00;69.60
1716;DHT22;855;48.824;9.220;2023-04-07T09:24:24;13.30;68.80
1716;DHT22;855;48.824;9.220;2023-04-07T09:27:09;13.30;68.20
1716;DHT22;855;48.824;9.220;2023-04-07T09:29:36;13.40;69.40
1716;DHT22;855;48.824;9.220;2023-04-07T09:32:03;13.50;68.10
1716;DHT22;855;48.824;9.220;2023-04-07T09:34:33;13.40;68.00
1716;DHT22;855;48.824;9.220;2023-04-07T09:37:00;13.30;69.60
1716;DHT22;855;48.824;9.220;2023-04-07T09:39:27;13.40;70.00
1716;DHT22;855;48.824;9.220;2023-04-07T09:41:55;13.50;68.20
1716;DHT22;855;48.824;9.220;2023-04-07T09:44:24;13.60;68.50
1716;DHT22;855;48.824;9.220;2023-04-07T09:46:53;13.70;67.50
1716;DHT22;855;48.824;9.220;2023-04-07T09:49:20;13.70;66.70
1716;DHT22;855;48.824;9.220;2023-04-07T09:51:52;13.70;66.30
1716;DHT22;855;48.824;9.220;2023-04-07T09:54:32;13.80;66.00
1716;DHT22;855;48.824;9.220;2023-04-07T09:57:00;13.90;67.50
1716;DHT22;855;48.824;9.220;2023-04-07T09:59:30;14.10;66.40
1716;DHT22;855;48.824;9.220;2023-04-07T10:01:57;14.10;66.30
1716;DHT22;855;48.824;9.220;2023-04-07T10:04:24;14.30;66.40
1716;DHT22;855;48.824;9.220;2023-04-07T10:06:52;14.30;65.70
1716;DHT22;855;48.824;9.220;2023-04-07T10:09:19;13.90;66.40
1716;DHT22;855;48.824;9.220;2023-04-07T10:11:47;13.70;67.30
1716;DHT22;855;48.824;9.220;2023-04-07T10:14:15;13.50;68.80
1716;DHT22;855;48.824;9.220;2023-04-07T10:16:45;13.30;69.60
1716;DHT22;855;48.824;9.220;2023-04-07T10:19:13;12.90;70.50
1716;DHT22;855;48.824;9.220;2023-04-07T10:21:42;12.90;71.00
1716;DHT22;855;48.824;9.220;2023-04-07T10:24:17;13.00;71.30
1716;DHT22;855;48.824;9.220;2023-04-07T10:26:50;13.10;70.60
1716;DHT22;855;48.824;9.220;2023-04-07T10:29:19;12.80;70.90
1716;DHT22;855;48.824;9.220;2023-04-07T10:31:48;13.00;71.20
1716;DHT22;855;48.824;9.220;2023-04-07T10:34:15;13.20;70.50
1716;DHT22;855;48.824;9.220;2023-04-07T10:37:08;13.30;70.20
1716;DHT22;855;48.824;9.220;2023-04-07T10:39:37;13.40;70.90
1716;DHT22;855;48.824;9.220;2023-04-07T10:42:04;13.60;70.00
1716;DHT22;855;48.824;9.220;2023-04-07T10:44:45;13.70;69.70
1716;DHT22;855;48.824;9.220;2023-04-07T10:47:15;13.80;69.00
1716;DHT22;855;48.824;9.220;2023-04-07T10:50:14;13.80;68.10
1716;DHT22;855;48.824;9.220;2023-04-07T10:52:41;13.90;68.10
1716;DHT22;855;48.824;9.220;2023-04-07T10:55:27;13.80;68.40
1716;DHT22;855;48.824;9.220;2023-04-07T10:58:18;13.70;68.40
1716;DHT22;855;48.824;9.220;2023-04-07T11:01:16;13.70;68.90
1716;DHT22;855;48.824;9.220;2023-04-07T11:04:01;13.80;67.90
1716;DHT22;855;48.824;9.220;2023-04-07T11:06:29;13.80;67.30
1716;DHT22;855;48.824;9.220;2023-04-07T11:08:56;13.80;66.30
1716;DHT22;855;48.824;9.220;2023-04-07T11:11:37;13.90;66.00
1716;DHT22;855;48.824;9.220;2023-04-07T11:14:04;14.10;66.50
1716;DHT22;855;48.824;9.220;2023-04-07T11:16:36;13.90;66.70
1716;DHT22;855;48.824;9.220;2023-04-07T11:19:05;13.90;66.90
1716;DHT22;855;48.824;9.220;2023-04-07T11:21:32;14.00;66.00
1716;DHT22;855;48.824;9.220;2023-04-07T11:23:58;14.20;64.80
1716;DHT22;855;48.824;9.220;2023-04-07T11:26:26;14.40;65.10
1716;DHT22;855;48.824;9.220;2023-04-07T11:28:55;14.30;64.80
1716;DHT22;855;48.824;9.220;2023-04-07T11:31:24;14.20;65.70
1716;DHT22;855;48.824;9.220;2023-04-07T11:33:52;14.10;67.10
1716;DHT22;855;48.824;9.220;2023-04-07T11:36:29;13.80;67.60
1716;DHT22;855;48.824;9.220;2023-04-07T11:38:57;14.00;68.10
1716;DHT22;855;48.824;9.220;2023-04-07T11:41:25;13.90;67.70
1716;DHT22;855;48.824;9.220;2023-04-07T11:44:11;13.90;67.30
1716;DHT22;855;48.824;9.220;2023-04-07T11:46:52;13.90;66.50
1716;DHT22;855;48.824;9.220;2023-04-07T11:49:19;13.90;66.40
1716;DHT22;855;48.824;9.220;2023-04-07T11:51:47;13.90;66.10
1716;DHT22;855;48.824;9.220;2023-04-07T11:54:14;14.10;66.40
1716;DHT22;855;48.824;9.220;2023-04-07T11:56:43;14.30;65.60
1716;DHT22;855;48.824;9.220;2023-04-07T11:59:18;14.30;64.90
1716;DHT22;855;48.824;9.220;2023-04-07T12:01:47;14.50;64.90
1716;DHT22;855;48.824;9.220;2023-04-07T12:04:14;14.60;65.10
1716;DHT22;855;48.824;9.220;2023-04-07T12:06:43;14.60;64.70
1716;DHT22;855;48.824;9.220;2023-04-07T12:09:27;14.70;65.20
1716;DHT22;855;48.824;9.220;2023-04-07T12:11:55;14.80;65.60
1716;DHT22;855;48.824;9.220;2023-04-07T12:14:22;14.80;66.90
1716;DHT22;855;48.824;9.220;2023-04-07T12:16:49;14.70;67.90
1716;DHT22;855;48.824;9.220;2023-04-07T12:19:17;14.50;68.60
1716;DHT22;855;48.824;9.220;2023-04-07T12:21:44;14.40;68.90
1716;DHT22;855;48.824;9.220;2023-04-07T12:24:12;14.10;68.40
1716;DHT22;855;48.824;9.220;2023-04-07T12:26:39;14.00;69.60
1716;DHT22;855;48.824;9.220;2023-04-07T12:29:06;14.00;71.40
1716;DHT22;855;48.824;9.220;2023-04-07T12:31:33;13.90;73.00
1716;DHT22;855;48.824;9.220;2023-04-07T12:34:01;13.80;76.00
1716;DHT22;855;48.824;9.220;2023-04-07T12:36:28;13.90;76.40
1716;DHT22;855;48.824;9.220;2023-04-07T12:38:55;14.00;75.10
1716;DHT22;855;48.824;9.220;2023-04-07T12:41:23;14.00;74.60
1716;DHT22;855;48.824;9.220;2023-04-07T12:43:51;14.00;73.70
1716;DHT22;855;48.824;9.220;2023-04-07T12:46:18;14.10;73.00
1716;DHT22;855;48.824;9.220;2023-04-07T12:48:46;14.10;72.70
1716;DHT22;855;48.824;9.220;2023-04-07T12:51:14;14.20;72.30
1716;DHT22;855;48.824;9.220;2023-04-07T12:53:40;14.30;72.30
1716;DHT22;855;48.824;9.220;2023-04-07T12:56:07;14.40;72.50
1716;DHT22;855;48.824;9.220;2023-04-07T12:58:35;14.50;70.20
1716;DHT22;855;48.824;9.220;2023-04-07T13:01:02;14.60;67.90
1716;DHT22;855;48.824;9.220;2023-04-07T13:03:29;14.70;66.70
1716;DHT22;855;48.824;9.220;2023-04-07T13:05:56;14.70;66.80
1716;DHT22;855;48.824;9.220;2023-04-07T13:08:26;14.70;65.70
1716;DHT22;855;48.824;9.220;2023-04-07T13:10:53;14.80;65.50
1716;DHT22;855;48.824;9.220;2023-04-07T13:13:20;14.90;65.90
1716;DHT22;855;48.824;9.220;2023-04-07T13:15:49;14.90;65.20
1716;DHT22;855;48.824;9.220;2023-04-07T13:18:16;15.00;64.80
1716;DHT22;855;48.824;9.220;2023-04-07T13:20:42;15.10;64.50
1716;DHT22;855;48.824;9.220;2023-04-07T13:23:10;15.30;64.00
1716;DHT22;855;48.824;9.220;2023-04-07T13:25:37;15.40;63.50
1716;DHT22;855;48.824;9.220;2023-04-07T13:28:04;15.50;64.40
1716;DHT22;855;48.824;9.220;2023-04-07T13:30:31;15.30;64.70
1716;DHT22;855;48.824;9.220;2023-04-07T13:32:59;15.40;64.70
1716;DHT22;855;48.824;9.220;2023-04-07T13:35:26;15.50;64.70
1716;DHT22;855;48.824;9.220;2023-04-07T13:37:54;15.50;64.70
1716;DHT22;855;48.824;9.220;2023-04-07T13:40:21;15.50;64.90
1716;DHT22;855;48.824;9.220;2023-04-07T13:42:48;15.50;65.20
1716;DHT22;855;48.824;9.220;2023-04-07T13:45:15;15.60;64.80
1716;DHT22;855;48.824;9.220;2023-04-07T13:47:41;15.70;64.80
1716;DHT22;855;48.824;9.220;2023-04-07T13:50:10;15.70;64.20
1716;DHT22;855;48.824;9.220;2023-04-07T13:52:37;15.90;63.60
1716;DHT22;855;48.824;9.220;2023-04-07T13:55:04;15.80;63.80
1716;DHT22;855;48.824;9.220;2023-04-07T13:57:31;15.90;64.20
1716;DHT22;855;48.824;9.220;2023-04-07T13:59:58;15.80;63.90
1716;DHT22;855;48.824;9.220;2023-04-07T14:02:25;15.60;65.20
1716;DHT22;855;48.824;9.220;2023-04-07T14:04:54;15.60;64.40
1716;DHT22;855;48.824;9.220;2023-04-07T14:07:23;15.70;63.60
1716;DHT22;855;48.824;9.220;2023-04-07T14:09:50;15.70;62.80
1716;DHT22;855;48.824;9.220;2023-04-07T14:12:18;15.80;63.00
1716;DHT22;855;48.824;9.220;2023-04-07T14:14:46;16.00;62.30
1716;DHT22;855;48.824;9.220;2023-04-07T14:17:14;16.00;61.50
1716;DHT22;855;48.824;9.220;2023-04-07T14:19:41;15.80;61.50
1716;DHT22;855;48.824;9.220;2023-04-07T14:22:09;15.90;60.40
1716;DHT22;855;48.824;9.220;2023-04-07T14:24:37;16.10;60.60
1716;DHT22;855;48.824;9.220;2023-04-07T14:27:04;16.00;60.40
1716;DHT22;855;48.824;9.220;2023-04-07T14:29:31;15.90;60.40
1716;DHT22;855;48.824;9.220;2023-04-07T14:31:58;15.90;61.60
1716;DHT22;855;48.824;9.220;2023-04-07T14:34:24;16.00;63.60
1716;DHT22;855;48.824;9.220;2023-04-07T14:36:52;16.00;64.90
1716;DHT22;855;48.824;9.220;2023-04-07T14:39:19;15.90;64.90
1716;DHT22;855;48.824;9.220;2023-04-07T14:41:48;15.90;63.90
1716;DHT22;855;48.824;9.220;2023-04-07T14:44:15;15.90;62.60
1716;DHT22;855;48.824;9.220;2023-04-07T14:46:42;16.00;62.40
1716;DHT22;855;48.824;9.220;2023-04-07T14:49:08;16.10;62.30
1716;DHT22;855;48.824;9.220;2023-04-07T14:51:37;16.10;62.20
1716;DHT22;855;48.824;9.220;2023-04-07T14:54:04;16.10;61.50
1716;DHT22;855;48.824;9.220;2023-04-07T14:56:31;15.90;61.40
1716;DHT22;855;48.824;9.220;2023-04-07T14:58:59;15.70;62.60
1716;DHT22;855;48.824;9.220;2023-04-07T15:01:26;15.60;64.70
1716;DHT22;855;48.824;9.220;2023-04-07T15:03:52;15.60;64.80
1716;DHT22;855;48.824;9.220;2023-04-07T15:06:19;15.60;64.70
1716;DHT22;855;48.824;9.220;2023-04-07T15:08:46;15.50;65.30
1716;DHT22;855;48.824;9.220;2023-04-07T15:11:13;15.50;66.00
1716;DHT22;855;48.824;9.220;2023-04-07T15:13:40;15.50;66.80
1716;DHT22;855;48.824;9.220;2023-04-07T15:16:10;15.60;65.50
1716;DHT22;855;48.824;9.220;2023-04-07T15:18:38;15.70;63.80
1716;DHT22;855;48.824;9.220;2023-04-07T15:21:05;15.70;64.50
1716;DHT22;855;48.824;9.220;2023-04-07T15:23:32;15.70;65.10
1716;DHT22;855;48.824;9.220;2023-04-07T15:25:59;15.40;65.20
1716;DHT22;855;48.824;9.220;2023-04-07T15:28:26;15.10;66.40
1716;DHT22;855;48.824;9.220;2023-04-07T15:30:53;15.00;66.90
1716;DHT22;855;48.824;9.220;2023-04-07T15:33:21;14.90;68.10
1716;DHT22;855;48.824;9.220;2023-04-07T15:35:47;14.90;67.20
1716;DHT22;855;48.824;9.220;2023-04-07T15:38:14;14.70;66.90
1716;DHT22;855;48.824;9.220;2023-04-07T15:40:41;14.60;66.50
1716;DHT22;855;48.824;9.220;2023-04-07T15:43:08;14.70;65.60
1716;DHT22;855;48.824;9.220;2023-04-07T15:45:39;14.60;63.80
1716;DHT22;855;48.824;9.220;2023-04-07T15:48:07;14.50;63.60
1716;DHT22;855;48.824;9.220;2023-04-07T15:50:35;14.50;63.60
1716;DHT22;855;48.824;9.220;2023-04-07T15:53:04;14.50;64.40
1716;DHT22;855;48.824;9.220;2023-04-07T15:55:32;14.50;63.60
1716;DHT22;855;48.824;9.220;2023-04-07T15:57:59;14.50;63.10
1716;DHT22;855;48.824;9.220;2023-04-07T16:00:27;14.50;62.30
1716;DHT22;855;48.824;9.220;2023-04-07T16:02:54;14.50;62.80
1716;DHT22;855;48.824;9.220;2023-04-07T16:05:21;14.50;61.90
1716;DHT22;855;48.824;9.220;2023-04-07T16:07:49;14.50;62.30
1716;DHT22;855;48.824;9.220;2023-04-07T16:10:16;14.50;62.30
1716;DHT22;855;48.824;9.220;2023-04-07T16:12:44;14.50;62.60
1716;DHT22;855;48.824;9.220;2023-04-07T16:15:11;14.50;63.40
1716;DHT22;855;48.824;9.220;2023-04-07T16:17:38;14.40;63.40
1716;DHT22;855;48.824;9.220;2023-04-07T16:20:08;14.30;64.20
1716;DHT22;855;48.824;9.220;2023-04-07T16:22:39;14.40;64.20
1716;DHT22;855;48.824;9.220;2023-04-07T16:25:08;14.50;63.50
1716;DHT22;855;48.824;9.220;2023-04-07T16:27:35;14.50;63.90
1716;DHT22;855;48.824;9.220;2023-04-07T16:30:02;14.50;64.80